Portada
METAR-TAF:

METAR-TAF

Aeroports :

Tela, Hondures

latitud: 15-43N, longitud: 087-29W, altitud: 3 m

Observació

L'informe es va fer fa 1 hora i 17 minuts, a les 17:00 UTC
Vent 17 kt del Nord/Nord-Oest amb ràfegues de 30 kt
Temperatura 23°C
Humitat 94%
Pressió 1019 hPa
Visibilitat: 5000 m
Cel ennuvolat a una alçada de 2000 ft, Cumulus congestus.
plugim

METAR: MHTE 271700Z 34017G30KT 5000 -DZ BKN020TCU OVXC070 23/22 Q1019 A3009 NOSIG

Hora: 12:17 (18:17 UTC)


TAF: manca

Observacions i pronòstics meteorològics de més de 4000 aeroports (METAR i TAF).

Les estacions disponibles són els punts grocs i vermells al mapa.

Posi el ratolí al punt desitjat per veure el nom de l'estació.

Feu clic per veure les observacions i els pronòstics meteorològics.

Per canviar el mapa: feu clic els botons verds amb una creu de color negre per apropar; al botó verd amb un guió per allunyar la imatge; o en les fletxes verdes per a mapes adjacents.


METAR-TAF: